createdAt,value
2022-12-04T00:00:51.810Z,101960.47
2022-12-04T00:03:18.324Z,101962.13
2022-12-04T00:05:44.803Z,101954.06
2022-12-04T00:08:11.300Z,101950.06
2022-12-04T00:10:43.381Z,101947.66
2022-12-04T00:13:09.878Z,101946.28
2022-12-04T00:15:41.477Z,101943.63
2022-12-04T00:18:07.928Z,101951.97
2022-12-04T00:20:34.704Z,101930.78
2022-12-04T00:23:01.123Z,101929.44
2022-12-04T00:25:27.517Z,101931.03
2022-12-04T00:27:53.952Z,101937.69
2022-12-04T00:30:20.650Z,101928.88
2022-12-04T00:32:47.115Z,101929.41
2022-12-04T00:35:13.555Z,101927.03
2022-12-04T00:37:40.046Z,101928.34
2022-12-04T00:40:07.582Z,101929.41
2022-12-04T00:42:33.987Z,101925.94
2022-12-04T00:45:00.406Z,101918.44
2022-12-04T00:47:26.880Z,101914.16
2022-12-04T00:49:53.664Z,101911.47
2022-12-04T00:52:20.472Z,101921.38
2022-12-04T00:54:46.921Z,101918.16
2022-12-04T00:57:13.353Z,101919.00
2022-12-04T00:59:39.839Z,101918.97
2022-12-04T01:02:06.289Z,101923.78
2022-12-04T01:04:32.721Z,101925.16
2022-12-04T01:07:04.691Z,101920.03
2022-12-04T01:09:32.509Z,101934.22
2022-12-04T01:11:58.930Z,101914.97
2022-12-04T01:14:25.566Z,101917.34
2022-12-04T01:16:54.186Z,101917.91
2022-12-04T01:19:20.739Z,101920.88
2022-12-04T01:21:47.220Z,101925.94
2022-12-04T01:24:13.682Z,101924.06
2022-12-04T01:26:42.822Z,101929.41
2022-12-04T01:29:09.273Z,101920.34
2022-12-04T01:31:36.103Z,101920.59
2022-12-04T01:34:02.651Z,101923.75
2022-12-04T01:36:29.448Z,101922.19
2022-12-04T01:38:56.571Z,101922.97
2022-12-04T01:41:26.195Z,101923.00
2022-12-04T01:44:13.079Z,101918.44
2022-12-04T01:46:41.041Z,101920.03
2022-12-04T01:49:12.643Z,101918.16
2022-12-04T01:51:47.233Z,101917.38
2022-12-04T01:54:35.816Z,101922.19
2022-12-04T01:57:08.105Z,101920.03
2022-12-04T01:59:44.772Z,101936.09
2022-12-04T02:02:16.074Z,101929.16
2022-12-04T02:04:43.618Z,101926.47
2022-12-04T02:07:10.176Z,101930.75
2022-12-04T02:09:39.488Z,101915.75
2022-12-04T02:12:23.867Z,101927.81
2022-12-04T02:15:14.488Z,101917.09
2022-12-04T02:17:49.832Z,101920.59
2022-12-04T02:20:39.263Z,101920.59
2022-12-04T02:23:17.575Z,101931.03
2022-12-04T02:26:05.770Z,101926.47
2022-12-04T02:28:51.409Z,101926.22
2022-12-04T02:31:27.073Z,101927.56
2022-12-04T02:34:18.292Z,101930.75
2022-12-04T02:36:54.720Z,101918.41
2022-12-04T02:39:43.927Z,101917.63
2022-12-04T02:42:31.501Z,101913.88
2022-12-04T02:45:02.952Z,101915.22
2022-12-04T02:47:32.271Z,101906.13
2022-12-04T02:50:01.265Z,101909.09
2022-12-04T02:52:33.430Z,101893.81
2022-12-04T02:55:08.667Z,101888.72
2022-12-04T02:57:40.875Z,101894.63
2022-12-04T03:00:09.003Z,101898.88
2022-12-04T03:02:44.935Z,101887.13
2022-12-04T03:05:17.680Z,101889.78
2022-12-04T03:07:49.924Z,101890.31
2022-12-04T03:10:22.083Z,101884.97
2022-12-04T03:12:57.929Z,101887.13
2022-12-04T03:15:35.489Z,101886.59
2022-12-04T03:18:05.493Z,101883.91
2022-12-04T03:20:34.817Z,101881.75
2022-12-04T03:23:14.557Z,101883.38
2022-12-04T03:25:53.500Z,101876.69
2022-12-04T03:28:31.396Z,101872.94
2022-12-04T03:31:04.030Z,101878.56
2022-12-04T03:33:39.152Z,101872.91
2022-12-04T03:36:34.948Z,101875.06
2022-12-04T03:39:26.642Z,101877.22
2022-12-04T03:41:53.016Z,101878.00
2022-12-04T03:44:35.794Z,101886.56
2022-12-04T03:47:15.216Z,101880.41
2022-12-04T03:49:41.640Z,101876.69
2022-12-04T03:52:18.080Z,101883.38
2022-12-04T03:54:50.284Z,101887.91
2022-12-04T03:57:25.681Z,101881.50
2022-12-04T04:00:00.296Z,101892.75
2022-12-04T04:02:33.083Z,101887.91
2022-12-04T04:05:01.386Z,101883.38
2022-12-04T04:07:35.542Z,101876.94
2022-12-04T04:10:07.576Z,101873.75
2022-12-04T04:12:40.232Z,101869.72
2022-12-04T04:15:32.646Z,101879.63
2022-12-04T04:18:20.292Z,101867.31
2022-12-04T04:21:17.965Z,101875.84
2022-12-04T04:24:08.722Z,101880.69
2022-12-04T04:26:40.393Z,101875.06
2022-12-04T04:29:06.856Z,101871.59
2022-12-04T04:31:43.657Z,101874.28
2022-12-04T04:34:28.368Z,101866.22
2022-12-04T04:37:13.980Z,101870.25
2022-12-04T04:39:50.959Z,101884.72
2022-12-04T04:42:24.712Z,101875.06
2022-12-04T04:45:04.588Z,101879.09
2022-12-04T04:47:41.612Z,101873.47
2022-12-04T04:50:11.180Z,101874.00
2022-12-04T04:52:42.005Z,101873.19
2022-12-04T04:55:09.312Z,101875.59
2022-12-04T04:57:36.731Z,101868.38
2022-12-04T05:00:10.695Z,101868.09
2022-12-04T05:02:37.675Z,101875.06
2022-12-04T05:05:04.660Z,101876.41
2022-12-04T05:07:31.159Z,101879.09
2022-12-04T05:09:57.999Z,101871.88
2022-12-04T05:12:24.697Z,101880.19
2022-12-04T05:14:51.157Z,101884.19
2022-12-04T05:17:17.690Z,101880.69
2022-12-04T05:19:57.384Z,101880.97
2022-12-04T05:22:31.626Z,101883.13
2022-12-04T05:24:58.848Z,101890.88
2022-12-04T05:27:26.653Z,101891.13
2022-12-04T05:29:54.648Z,101887.66
2022-12-04T05:32:23.040Z,101897.84
2022-12-04T05:34:50.961Z,101894.63
2022-12-04T05:37:17.710Z,101893.84
2022-12-04T05:39:44.777Z,101896.75
2022-12-04T05:42:11.273Z,101883.91
2022-12-04T05:44:37.985Z,101896.25
2022-12-04T05:47:04.628Z,101888.47
2022-12-04T05:49:32.231Z,101889.00
2022-12-04T05:51:58.988Z,101897.59
2022-12-04T05:54:25.764Z,101892.75
2022-12-04T05:56:52.268Z,101882.56
2022-12-04T05:59:19.235Z,101887.13
2022-12-04T06:01:45.950Z,101876.69
2022-12-04T06:04:12.662Z,101875.34
2022-12-04T06:06:39.385Z,101886.31
2022-12-04T06:09:07.375Z,101890.88
2022-12-04T06:11:36.427Z,101882.03
2022-12-04T06:14:06.031Z,101883.38
2022-12-04T06:16:41.786Z,101876.69
2022-12-04T06:19:14.612Z,101876.13
2022-12-04T06:21:45.039Z,101878.81
2022-12-04T06:24:17.050Z,101877.50
2022-12-04T06:27:11.096Z,101877.22
2022-12-04T06:29:31.586Z,101880.16
2022-12-04T06:31:58.333Z,101876.41
2022-12-04T06:34:24.827Z,101877.75
2022-12-04T06:36:51.234Z,101876.94
2022-12-04T06:39:19.101Z,101883.91
2022-12-04T06:41:47.411Z,101891.69
2022-12-04T06:44:14.806Z,101886.84
2022-12-04T06:46:46.506Z,101880.44
2022-12-04T06:49:13.802Z,101882.84
2022-12-04T06:51:40.862Z,101885.53
2022-12-04T06:54:07.959Z,101888.19
2022-12-04T06:56:35.224Z,101884.16
2022-12-04T06:59:03.576Z,101890.63
2022-12-04T07:01:32.395Z,101891.94
2022-12-04T07:04:00.990Z,101896.78
2022-12-04T07:06:29.952Z,101895.44
2022-12-04T07:09:06.056Z,101889.00
2022-12-04T07:11:33.724Z,101893.03
2022-12-04T07:14:00.237Z,101886.34
2022-12-04T07:16:28.238Z,101892.50
2022-12-04T07:18:56.478Z,101900.25
2022-12-04T07:21:29.384Z,101894.63
2022-12-04T07:23:58.528Z,101889.53
2022-12-04T07:26:26.488Z,101890.09
2022-12-04T07:28:54.380Z,101899.72
2022-12-04T07:31:23.537Z,101904.53
2022-12-04T07:33:50.365Z,101902.13
2022-12-04T07:36:21.103Z,101891.16
2022-12-04T07:38:48.299Z,101900.53
2022-12-04T07:41:15.143Z,101914.47
2022-12-04T07:43:42.555Z,101904.56
2022-12-04T07:46:13.215Z,101910.97
2022-12-04T07:48:40.081Z,101902.16
2022-12-04T07:51:09.474Z,101906.69
2022-12-04T07:53:36.484Z,101901.63
2022-12-04T07:56:04.663Z,101904.56
2022-12-04T07:58:31.802Z,101903.22
2022-12-04T08:01:18.630Z,101902.94
2022-12-04T08:03:48.342Z,101906.44
2022-12-04T08:06:17.134Z,101913.66
2022-12-04T08:08:43.592Z,101913.66
2022-12-04T08:11:13.056Z,101917.16
2022-12-04T08:13:39.618Z,101918.78
2022-12-04T08:16:08.144Z,101923.03
2022-12-04T08:18:34.688Z,101917.44
2022-12-04T08:21:09.756Z,101920.63
2022-12-04T08:23:37.340Z,101920.38
2022-12-04T08:26:05.040Z,101922.50
2022-12-04T08:28:32.254Z,101919.28
2022-12-04T08:31:09.286Z,101923.59
2022-12-04T08:33:35.834Z,101931.09
2022-12-04T08:36:05.787Z,101943.94
2022-12-04T08:38:32.306Z,101941.53
2022-12-04T08:41:04.155Z,101936.47
2022-12-04T08:43:30.981Z,101941.53
2022-12-04T08:45:59.255Z,101938.06
2022-12-04T08:48:26.636Z,101940.47
2022-12-04T08:50:53.560Z,101943.41
2022-12-04T08:53:20.414Z,101938.34
2022-12-04T08:55:46.851Z,101943.41
2022-12-04T08:58:13.993Z,101947.19
2022-12-04T09:00:40.899Z,101937.53
2022-12-04T09:03:07.839Z,101939.69
2022-12-04T09:05:34.300Z,101934.31
2022-12-04T09:08:00.882Z,101934.88
2022-12-04T09:10:27.411Z,101935.66
2022-12-04T09:12:53.955Z,101933.50
2022-12-04T09:15:20.475Z,101931.09
2022-12-04T09:17:46.957Z,101932.97
2022-12-04T09:20:14.957Z,101930.81
2022-12-04T09:23:02.694Z,101934.06
2022-12-04T09:25:27.928Z,101943.41
2022-12-04T09:27:54.390Z,101932.41
2022-12-04T09:30:20.825Z,101935.13
2022-12-04T09:32:47.248Z,101932.44
2022-12-04T09:35:13.735Z,101927.59
2022-12-04T09:37:40.223Z,101935.13
2022-12-04T09:40:07.736Z,101928.41
2022-12-04T09:42:50.965Z,101942.88
2022-12-04T09:45:20.415Z,101936.44
2022-12-04T09:47:50.106Z,101939.41
2022-12-04T09:50:40.995Z,101938.06
2022-12-04T09:53:25.367Z,101935.63
2022-12-04T09:55:56.317Z,101942.09
2022-12-04T09:58:39.277Z,101938.88
2022-12-04T10:01:05.900Z,101932.97
2022-12-04T10:03:32.556Z,101927.59
2022-12-04T10:06:18.610Z,101933.47
2022-12-04T10:08:49.504Z,101934.53
2022-12-04T10:11:32.799Z,101933.72
2022-12-04T10:14:11.458Z,101933.75
2022-12-04T10:16:45.187Z,101932.16
2022-12-04T10:19:56.266Z,101936.72
2022-12-04T10:22:58.130Z,101933.22
2022-12-04T10:25:26.904Z,101929.47
2022-12-04T10:28:03.475Z,101924.38
2022-12-04T10:30:33.647Z,101931.84
2022-12-04T10:33:11.257Z,101927.56
2022-12-04T10:35:38.706Z,101936.19
2022-12-04T10:38:13.169Z,101934.53
2022-12-04T10:40:39.561Z,101938.84
2022-12-04T10:43:18.156Z,101926.00
2022-12-04T10:45:44.794Z,101922.78
2022-12-04T10:48:26.838Z,101927.06
2022-12-04T10:50:53.306Z,101919.81
2022-12-04T10:53:24.876Z,101921.41
2022-12-04T10:55:51.325Z,101912.84
2022-12-04T10:58:20.490Z,101916.88
2022-12-04T11:01:04.971Z,101907.22
2022-12-04T11:03:32.353Z,101917.66
2022-12-04T11:06:04.899Z,101904.78
2022-12-04T11:08:37.277Z,101909.59
2022-12-04T11:11:08.141Z,101919.00
2022-12-04T11:13:35.015Z,101911.22
2022-12-04T11:16:01.546Z,101909.06
2022-12-04T11:18:33.678Z,101913.88
2022-12-04T11:21:07.462Z,101915.75
2022-12-04T11:23:43.320Z,101909.59
2022-12-04T11:26:10.828Z,101918.72
2022-12-04T11:28:42.401Z,101904.75
2022-12-04T11:31:16.400Z,101907.75
2022-12-04T11:33:56.705Z,101899.66
2022-12-04T11:36:36.807Z,101888.66
2022-12-04T11:39:24.311Z,101880.34
2022-12-04T11:42:01.524Z,101889.19
2022-12-04T11:44:32.384Z,101882.75
2022-12-04T11:47:02.328Z,101871.75
2022-12-04T11:49:30.782Z,101866.41
2022-12-04T11:52:02.968Z,101867.72
2022-12-04T11:54:39.382Z,101859.63
2022-12-04T11:57:14.823Z,101846.78
2022-12-04T12:00:04.949Z,101852.91
2022-12-04T12:02:55.726Z,101846.47
2022-12-04T12:05:33.018Z,101844.91
2022-12-04T12:08:13.069Z,101842.50
2022-12-04T12:10:55.865Z,101840.03
2022-12-04T12:13:28.474Z,101843.28
2022-12-04T12:16:07.230Z,101837.09
2022-12-04T12:19:18.783Z,101844.91
2022-12-04T12:22:03.462Z,101843.53
2022-12-04T12:24:51.319Z,101842.97
2022-12-04T12:27:36.171Z,101840.56
2022-12-04T12:30:23.755Z,101837.88
2022-12-04T12:33:18.292Z,101835.47
2022-12-04T12:36:03.480Z,101836.28
2022-12-04T12:38:37.516Z,101831.19
2022-12-04T12:41:15.446Z,101832.25
2022-12-04T12:43:48.294Z,101828.75
2022-12-04T12:46:36.425Z,101831.19
2022-12-04T12:49:09.647Z,101832.81
2022-12-04T12:51:45.366Z,101831.16
2022-12-04T12:54:15.960Z,101837.38
2022-12-04T12:56:50.054Z,101833.88
2022-12-04T12:59:22.609Z,101838.16
2022-12-04T13:02:00.844Z,101830.13
2022-12-04T13:04:50.667Z,101829.56
2022-12-04T13:07:17.106Z,101826.34
2022-12-04T13:10:15.707Z,101822.06
2022-12-04T13:12:52.737Z,101825.53
2022-12-04T13:15:22.374Z,101819.38
2022-12-04T13:17:52.602Z,101817.19
2022-12-04T13:20:34.011Z,101816.38
2022-12-04T13:23:28.499Z,101814.81
2022-12-04T13:26:13.636Z,101811.31
2022-12-04T13:28:40.026Z,101798.47
2022-12-04T13:31:39.919Z,101805.97
2022-12-04T13:34:21.663Z,101809.44
2022-12-04T13:37:25.648Z,101807.56
2022-12-04T13:40:26.791Z,101799.97
2022-12-04T13:42:53.472Z,101801.59
2022-12-04T13:45:33.574Z,101795.44
2022-12-04T13:48:03.271Z,101802.97
2022-12-04T13:50:34.796Z,101816.13
2022-12-04T13:53:01.831Z,101813.94
2022-12-04T13:55:34.293Z,101825.47
2022-12-04T13:58:03.797Z,101826.25
2022-12-04T14:00:34.780Z,101821.69
2022-12-04T14:03:05.841Z,101826.22
2022-12-04T14:05:51.347Z,101818.41
2022-12-04T14:08:25.409Z,101828.34
2022-12-04T14:11:05.487Z,101829.72
2022-12-04T14:13:43.318Z,101829.47
2022-12-04T14:16:21.605Z,101828.63
2022-12-04T14:18:57.108Z,101820.84
2022-12-04T14:21:24.471Z,101824.34
2022-12-04T14:23:52.310Z,101825.44
2022-12-04T14:26:20.270Z,101820.13
2022-12-04T14:28:46.828Z,101822.84
2022-12-04T14:31:16.610Z,101827.66
2022-12-04T14:33:56.334Z,101832.75
2022-12-04T14:36:33.414Z,101831.44
2022-12-04T14:39:02.449Z,101833.31
2022-12-04T14:41:28.882Z,101828.97
2022-12-04T14:43:57.120Z,101834.63
2022-12-04T14:46:32.762Z,101834.13
2022-12-04T14:49:16.473Z,101823.94
2022-12-04T14:51:45.742Z,101833.84
2022-12-04T14:54:38.062Z,101827.94
2022-12-04T14:57:23.323Z,101828.47
2022-12-04T14:59:52.576Z,101829.25
2022-12-04T15:02:22.548Z,101826.84
2022-12-04T15:04:50.865Z,101826.06
2022-12-04T15:07:22.797Z,101815.88
2022-12-04T15:10:16.853Z,101819.88
2022-12-04T15:12:54.016Z,101813.72
2022-12-04T15:15:25.715Z,101823.09
2022-12-04T15:18:11.435Z,101825.03
2022-12-04T15:20:55.903Z,101822.34
2022-12-04T15:23:27.945Z,101816.44
2022-12-04T15:25:57.466Z,101823.69
2022-12-04T15:28:36.532Z,101818.88
2022-12-04T15:31:06.409Z,101827.44
2022-12-04T15:33:37.193Z,101824.75
2022-12-04T15:36:08.902Z,101829.81
2022-12-04T15:38:36.763Z,101833.03
2022-12-04T15:41:03.289Z,101839.81
2022-12-04T15:43:41.083Z,101833.59
2022-12-04T15:46:21.201Z,101844.66
2022-12-04T15:48:48.105Z,101851.59
2022-12-04T15:51:16.480Z,101852.94
2022-12-04T15:53:45.740Z,101860.72
2022-12-04T15:56:21.583Z,101859.63
2022-12-04T15:59:00.869Z,101859.34
2022-12-04T16:01:28.210Z,101867.94
2022-12-04T16:03:56.215Z,101867.69
2022-12-04T16:06:25.692Z,101865.56
2022-12-04T16:08:52.245Z,101858.88
2022-12-04T16:11:21.651Z,101874.69
2022-12-04T16:13:50.749Z,101862.13
2022-12-04T16:16:22.249Z,101859.41
2022-12-04T16:18:49.126Z,101858.88
2022-12-04T16:21:18.247Z,101857.50
2022-12-04T16:23:45.451Z,101856.94
2022-12-04T16:26:17.403Z,101859.09
2022-12-04T16:28:44.100Z,101858.88
2022-12-04T16:31:12.589Z,101859.91
2022-12-04T16:33:40.190Z,101851.06
2022-12-04T16:36:06.998Z,101861.53
2022-12-04T16:38:33.473Z,101859.13
2022-12-04T16:40:59.943Z,101858.03
2022-12-04T16:43:26.358Z,101868.47
2022-12-04T16:45:54.341Z,101870.38
2022-12-04T16:48:21.311Z,101867.44
2022-12-04T16:50:48.060Z,101866.66
2022-12-04T16:53:20.720Z,101865.28
2022-12-04T16:55:49.730Z,101864.25
2022-12-04T16:58:17.608Z,101869.31
2022-12-04T17:00:50.154Z,101864.72
2022-12-04T17:03:23.535Z,101859.63
2022-12-04T17:05:50.503Z,101860.44
2022-12-04T17:08:17.133Z,101864.72
2022-12-04T17:10:43.683Z,101863.13
2022-12-04T17:13:10.251Z,101861.50
2022-12-04T17:15:36.795Z,101865.25
2022-12-04T17:18:07.400Z,101856.13
2022-12-04T17:20:40.849Z,101855.88
2022-12-04T17:23:07.319Z,101853.72
2022-12-04T17:25:33.796Z,101855.59
2022-12-04T17:28:00.273Z,101862.31
2022-12-04T17:30:30.196Z,101862.84
2022-12-04T17:33:00.145Z,101865.50
2022-12-04T17:35:26.864Z,101868.19
2022-12-04T17:37:53.352Z,101865.56
2022-12-04T17:40:20.006Z,101867.41
2022-12-04T17:42:46.497Z,101866.31
2022-12-04T17:45:14.342Z,101868.47
2022-12-04T17:47:40.793Z,101875.97
2022-12-04T17:50:08.121Z,101867.91
2022-12-04T17:52:34.648Z,101875.94
2022-12-04T17:55:01.087Z,101872.19
2022-12-04T17:57:28.181Z,101884.31
2022-12-04T17:59:56.080Z,101885.16
2022-12-04T18:02:22.682Z,101884.59
2022-12-04T18:04:49.202Z,101895.03
2022-12-04T18:07:15.689Z,101888.03
2022-12-04T18:09:42.175Z,101888.03
2022-12-04T18:12:08.633Z,101884.00
2022-12-04T18:14:35.196Z,101891.22
2022-12-04T18:17:02.741Z,101895.28
2022-12-04T18:19:29.952Z,101890.44
2022-12-04T18:21:57.553Z,101893.91
2022-12-04T18:24:25.479Z,101895.22
2022-12-04T18:26:52.159Z,101908.09
2022-12-04T18:29:22.905Z,101898.44
2022-12-04T18:31:51.021Z,101897.91
2022-12-04T18:34:18.465Z,101899.22
2022-12-04T18:36:47.864Z,101899.47
2022-12-04T18:39:23.825Z,101892.50
2022-12-04T18:41:50.773Z,101891.19
2022-12-04T18:44:17.785Z,101884.78
2022-12-04T18:46:44.203Z,101885.53
2022-12-04T18:49:11.601Z,101886.34
2022-12-04T18:51:40.397Z,101892.25
2022-12-04T18:54:11.510Z,101901.63
2022-12-04T18:56:38.216Z,101895.19
2022-12-04T18:59:08.580Z,101888.78
2022-12-04T19:01:35.832Z,101879.63
2022-12-04T19:04:05.272Z,101895.47
2022-12-04T19:06:37.617Z,101887.69
2022-12-04T19:09:07.253Z,101888.78
2022-12-04T19:11:34.593Z,101886.03
2022-12-04T19:14:04.310Z,101886.34
2022-12-04T19:16:35.086Z,101891.22
2022-12-04T19:19:01.637Z,101889.34
2022-12-04T19:21:28.204Z,101893.88
2022-12-04T19:23:58.975Z,101887.38
2022-12-04T19:26:27.019Z,101893.00
2022-12-04T19:28:54.883Z,101892.78
2022-12-04T19:31:24.389Z,101890.38
2022-12-04T19:33:52.866Z,101889.28
2022-12-04T19:36:19.889Z,101899.22
2022-12-04T19:38:46.715Z,101889.03
2022-12-04T19:41:22.501Z,101885.81
2022-12-04T19:43:51.343Z,101882.84
2022-12-04T19:46:22.296Z,101887.34
2022-12-04T19:48:50.134Z,101889.75
2022-12-04T19:51:19.255Z,101891.91
2022-12-04T19:53:46.804Z,101887.94
2022-12-04T19:56:19.503Z,101893.00
2022-12-04T19:58:46.368Z,101893.00
2022-12-04T20:01:16.528Z,101893.81
2022-12-04T20:03:43.560Z,101893.56
2022-12-04T20:06:21.549Z,101893.81
2022-12-04T20:08:56.948Z,101902.16
2022-12-04T20:11:24.634Z,101900.00
2022-12-04T20:13:55.525Z,101893.28
2022-12-04T20:16:26.664Z,101897.59
2022-12-04T20:18:53.769Z,101888.44
2022-12-04T20:21:22.963Z,101893.81
2022-12-04T20:23:51.162Z,101899.19
2022-12-04T20:26:23.734Z,101883.88
2022-12-04T20:28:51.445Z,101893.56
2022-12-04T20:31:21.679Z,101886.56
2022-12-04T20:33:50.832Z,101884.44
2022-12-04T20:36:21.902Z,101875.31
2022-12-04T20:38:49.916Z,101869.69
2022-12-04T20:41:16.664Z,101876.91
2022-12-04T20:43:44.104Z,101873.69
2022-12-04T20:46:19.008Z,101873.69
2022-12-04T20:48:49.694Z,101875.81
2022-12-04T20:51:20.836Z,101876.38
2022-12-04T20:53:48.485Z,101884.94
2022-12-04T20:56:15.528Z,101885.22
2022-12-04T20:58:42.049Z,101882.56
2022-12-04T21:01:10.853Z,101889.81
2022-12-04T21:03:37.775Z,101891.41
2022-12-04T21:06:04.866Z,101893.53
2022-12-04T21:08:51.132Z,101891.63
2022-12-04T21:11:17.601Z,101887.34
2022-12-04T21:14:02.580Z,101889.22
2022-12-04T21:16:29.189Z,101889.47
2022-12-04T21:18:55.730Z,101892.16
2022-12-04T21:21:22.333Z,101886.84
2022-12-04T21:23:48.960Z,101892.50
2022-12-04T21:26:15.541Z,101886.78
2022-12-04T21:28:42.497Z,101886.03
2022-12-04T21:31:09.627Z,101893.28
2022-12-04T21:33:36.105Z,101887.88
2022-12-04T21:36:04.732Z,101882.00
2022-12-04T21:38:39.225Z,101891.69
2022-12-04T21:41:09.381Z,101890.88
2022-12-04T21:43:36.864Z,101886.03
2022-12-04T21:46:09.544Z,101886.56
2022-12-04T21:48:37.120Z,101882.53
2022-12-04T21:51:13.266Z,101889.22
2022-12-04T21:53:54.622Z,101889.22
2022-12-04T21:56:22.470Z,101889.75
2022-12-04T21:58:49.121Z,101881.69
2022-12-04T22:01:16.996Z,101888.88
2022-12-04T22:03:44.006Z,101882.41
2022-12-04T22:06:11.785Z,101890.75
2022-12-04T22:08:40.869Z,101880.53
2022-12-04T22:11:08.945Z,101895.88
2022-12-04T22:13:36.511Z,101890.81
2022-12-04T22:16:05.461Z,101896.41
2022-12-04T22:18:33.786Z,101879.22
2022-12-04T22:21:20.579Z,101881.97
2022-12-04T22:23:47.199Z,101885.69
2022-12-04T22:26:17.585Z,101880.84
2022-12-04T22:28:44.116Z,101884.31
2022-12-04T22:31:16.263Z,101884.31
2022-12-04T22:33:45.870Z,101879.47
2022-12-04T22:36:15.505Z,101884.81
2022-12-04T22:39:05.979Z,101890.69
2022-12-04T22:41:29.025Z,101891.50
2022-12-04T22:43:55.564Z,101890.47
2022-12-04T22:46:22.107Z,101890.97
2022-12-04T22:48:48.648Z,101885.31
2022-12-04T22:51:20.257Z,101887.94
2022-12-04T22:53:52.861Z,101883.44
2022-12-04T22:56:23.715Z,101892.31
2022-12-04T22:58:50.942Z,101884.22
2022-12-04T23:01:23.772Z,101884.25
2022-12-04T23:03:51.380Z,101882.66
2022-12-04T23:06:19.857Z,101879.94
2022-12-04T23:08:46.797Z,101884.22
2022-12-04T23:11:20.791Z,101883.94
2022-12-04T23:13:52.187Z,101880.16
2022-12-04T23:16:20.503Z,101871.81
2022-12-04T23:18:47.859Z,101876.41
2022-12-04T23:21:15.773Z,101874.56
2022-12-04T23:23:44.011Z,101880.44
2022-12-04T23:26:16.589Z,101875.59
2022-12-04T23:28:43.421Z,101876.16
2022-12-04T23:31:11.037Z,101868.84
2022-12-04T23:33:38.827Z,101878.50
2022-12-04T23:36:07.288Z,101879.06
2022-12-04T23:38:36.115Z,101874.78
2022-12-04T23:41:04.064Z,101874.00
2022-12-04T23:43:31.099Z,101881.78
2022-12-04T23:45:57.844Z,101876.91
2022-12-04T23:48:25.084Z,101884.72
2022-12-04T23:50:52.276Z,101878.22
2022-12-04T23:53:19.310Z,101878.69
2022-12-04T23:55:56.339Z,101884.34
2022-12-04T23:58:22.902Z,101885.44
